sensor_id;sensor_type;location;lat;lon;timestamp;P1;durP1;ratioP1;P2;durP2;ratioP2
13568;SDS011;6856;51.460;7.158;2024-03-25T00:00:22;5.27;;;2.90;;
13568;SDS011;6856;51.460;7.158;2024-03-25T00:02:57;7.67;;;2.83;;
13568;SDS011;6856;51.460;7.158;2024-03-25T00:05:29;7.53;;;3.17;;
13568;SDS011;6856;51.460;7.158;2024-03-25T00:08:03;8.00;;;3.20;;
13568;SDS011;6856;51.460;7.158;2024-03-25T00:10:38;8.20;;;3.50;;
13568;SDS011;6856;51.460;7.158;2024-03-25T00:13:11;11.27;;;3.50;;
13568;SDS011;6856;51.460;7.158;2024-03-25T00:15:43;13.50;;;3.60;;
13568;SDS011;6856;51.460;7.158;2024-03-25T00:18:19;7.27;;;3.43;;
13568;SDS011;6856;51.460;7.158;2024-03-25T00:20:51;8.90;;;3.77;;
13568;SDS011;6856;51.460;7.158;2024-03-25T00:23:24;10.40;;;4.23;;
13568;SDS011;6856;51.460;7.158;2024-03-25T00:25:56;7.40;;;3.80;;
13568;SDS011;6856;51.460;7.158;2024-03-25T00:28:28;12.67;;;5.53;;
13568;SDS011;6856;51.460;7.158;2024-03-25T00:31:01;13.20;;;5.77;;
13568;SDS011;6856;51.460;7.158;2024-03-25T00:33:36;10.17;;;5.93;;
13568;SDS011;6856;51.460;7.158;2024-03-25T00:36:08;16.13;;;7.67;;
13568;SDS011;6856;51.460;7.158;2024-03-25T00:38:41;12.80;;;7.73;;
13568;SDS011;6856;51.460;7.158;2024-03-25T00:41:14;13.10;;;7.57;;
13568;SDS011;6856;51.460;7.158;2024-03-25T00:43:47;14.67;;;7.97;;
13568;SDS011;6856;51.460;7.158;2024-03-25T00:46:20;15.97;;;8.17;;
13568;SDS011;6856;51.460;7.158;2024-03-25T00:48:55;12.87;;;8.00;;
13568;SDS011;6856;51.460;7.158;2024-03-25T00:51:26;13.03;;;8.37;;
13568;SDS011;6856;51.460;7.158;2024-03-25T00:54:01;14.50;;;8.07;;
13568;SDS011;6856;51.460;7.158;2024-03-25T00:56:33;12.40;;;8.07;;
13568;SDS011;6856;51.460;7.158;2024-03-25T00:59:12;17.07;;;7.90;;
13568;SDS011;6856;51.460;7.158;2024-03-25T01:01:44;20.13;;;8.90;;
13568;SDS011;6856;51.460;7.158;2024-03-25T01:04:18;18.53;;;8.50;;
13568;SDS011;6856;51.460;7.158;2024-03-25T01:06:50;12.27;;;8.03;;
13568;SDS011;6856;51.460;7.158;2024-03-25T01:09:23;16.60;;;9.20;;
13568;SDS011;6856;51.460;7.158;2024-03-25T01:11:56;11.93;;;9.13;;
13568;SDS011;6856;51.460;7.158;2024-03-25T01:14:29;12.10;;;8.77;;
13568;SDS011;6856;51.460;7.158;2024-03-25T01:17:03;15.47;;;9.80;;
13568;SDS011;6856;51.460;7.158;2024-03-25T01:19:38;12.17;;;9.77;;
13568;SDS011;6856;51.460;7.158;2024-03-25T01:22:10;15.00;;;10.60;;
13568;SDS011;6856;51.460;7.158;2024-03-25T01:24:43;15.33;;;9.30;;
13568;SDS011;6856;51.460;7.158;2024-03-25T01:27:15;17.90;;;9.97;;
13568;SDS011;6856;51.460;7.158;2024-03-25T01:29:48;16.23;;;9.10;;
13568;SDS011;6856;51.460;7.158;2024-03-25T01:32:22;14.27;;;8.63;;
13568;SDS011;6856;51.460;7.158;2024-03-25T01:34:57;15.37;;;8.77;;
13568;SDS011;6856;51.460;7.158;2024-03-25T01:37:33;12.17;;;7.37;;
13568;SDS011;6856;51.460;7.158;2024-03-25T01:40:06;15.17;;;8.03;;
13568;SDS011;6856;51.460;7.158;2024-03-25T01:42:40;12.53;;;7.87;;
13568;SDS011;6856;51.460;7.158;2024-03-25T01:45:15;11.80;;;7.17;;
13568;SDS011;6856;51.460;7.158;2024-03-25T01:47:46;13.30;;;7.20;;
13568;SDS011;6856;51.460;7.158;2024-03-25T01:50:23;12.63;;;6.33;;
13568;SDS011;6856;51.460;7.158;2024-03-25T01:52:57;10.97;;;5.63;;
13568;SDS011;6856;51.460;7.158;2024-03-25T01:55:35;9.40;;;5.57;;
13568;SDS011;6856;51.460;7.158;2024-03-25T01:58:09;8.53;;;4.63;;
13568;SDS011;6856;51.460;7.158;2024-03-25T02:00:44;9.77;;;4.80;;
13568;SDS011;6856;51.460;7.158;2024-03-25T02:03:17;8.17;;;4.90;;
13568;SDS011;6856;51.460;7.158;2024-03-25T02:05:57;12.27;;;4.97;;
13568;SDS011;6856;51.460;7.158;2024-03-25T02:08:32;7.60;;;3.90;;
13568;SDS011;6856;51.460;7.158;2024-03-25T02:11:11;8.60;;;4.43;;
13568;SDS011;6856;51.460;7.158;2024-03-25T02:13:43;11.17;;;4.03;;
13568;SDS011;6856;51.460;7.158;2024-03-25T02:16:17;10.07;;;3.70;;
13568;SDS011;6856;51.460;7.158;2024-03-25T02:18:51;8.97;;;3.87;;
13568;SDS011;6856;51.460;7.158;2024-03-25T02:21:25;9.00;;;3.93;;
13568;SDS011;6856;51.460;7.158;2024-03-25T02:23:58;7.17;;;3.63;;
13568;SDS011;6856;51.460;7.158;2024-03-25T02:26:38;9.23;;;3.77;;
13568;SDS011;6856;51.460;7.158;2024-03-25T02:29:09;9.50;;;4.00;;
13568;SDS011;6856;51.460;7.158;2024-03-25T02:31:43;10.33;;;3.60;;
13568;SDS011;6856;51.460;7.158;2024-03-25T02:34:16;6.83;;;3.40;;
13568;SDS011;6856;51.460;7.158;2024-03-25T02:36:49;9.10;;;2.93;;
13568;SDS011;6856;51.460;7.158;2024-03-25T02:39:20;7.60;;;3.00;;
13568;SDS011;6856;51.460;7.158;2024-03-25T02:41:57;7.33;;;3.27;;
13568;SDS011;6856;51.460;7.158;2024-03-25T02:44:28;6.90;;;3.20;;
13568;SDS011;6856;51.460;7.158;2024-03-25T02:47:05;10.83;;;3.60;;
13568;SDS011;6856;51.460;7.158;2024-03-25T02:49:38;9.43;;;3.53;;
13568;SDS011;6856;51.460;7.158;2024-03-25T02:52:14;9.43;;;3.10;;
13568;SDS011;6856;51.460;7.158;2024-03-25T02:54:48;11.97;;;3.90;;
13568;SDS011;6856;51.460;7.158;2024-03-25T02:57:21;8.63;;;3.50;;
13568;SDS011;6856;51.460;7.158;2024-03-25T02:59:54;9.27;;;3.73;;
13568;SDS011;6856;51.460;7.158;2024-03-25T03:02:26;9.23;;;4.10;;
13568;SDS011;6856;51.460;7.158;2024-03-25T03:05:04;7.47;;;3.77;;
13568;SDS011;6856;51.460;7.158;2024-03-25T03:07:37;8.20;;;3.47;;
13568;SDS011;6856;51.460;7.158;2024-03-25T03:10:11;11.50;;;4.23;;
13568;SDS011;6856;51.460;7.158;2024-03-25T03:12:44;6.87;;;3.17;;
13568;SDS011;6856;51.460;7.158;2024-03-25T03:15:17;10.03;;;4.20;;
13568;SDS011;6856;51.460;7.158;2024-03-25T03:17:51;10.63;;;4.03;;
13568;SDS011;6856;51.460;7.158;2024-03-25T03:20:26;11.73;;;4.37;;
13568;SDS011;6856;51.460;7.158;2024-03-25T03:22:58;8.70;;;4.17;;
13568;SDS011;6856;51.460;7.158;2024-03-25T03:25:31;6.77;;;3.50;;
13568;SDS011;6856;51.460;7.158;2024-03-25T03:28:05;10.77;;;4.60;;
13568;SDS011;6856;51.460;7.158;2024-03-25T03:30:38;7.07;;;4.00;;
13568;SDS011;6856;51.460;7.158;2024-03-25T03:33:11;11.20;;;4.37;;
13568;SDS011;6856;51.460;7.158;2024-03-25T03:35:45;10.33;;;4.30;;
13568;SDS011;6856;51.460;7.158;2024-03-25T03:38:18;8.03;;;4.40;;
13568;SDS011;6856;51.460;7.158;2024-03-25T03:40:58;12.33;;;5.13;;
13568;SDS011;6856;51.460;7.158;2024-03-25T03:43:32;13.87;;;4.67;;
13568;SDS011;6856;51.460;7.158;2024-03-25T03:46:05;8.80;;;4.97;;
13568;SDS011;6856;51.460;7.158;2024-03-25T03:48:37;10.50;;;4.87;;
13568;SDS011;6856;51.460;7.158;2024-03-25T03:51:13;8.50;;;4.30;;
13568;SDS011;6856;51.460;7.158;2024-03-25T03:53:45;8.23;;;4.63;;
13568;SDS011;6856;51.460;7.158;2024-03-25T03:56:18;13.50;;;5.57;;
13568;SDS011;6856;51.460;7.158;2024-03-25T03:58:52;12.90;;;4.80;;
13568;SDS011;6856;51.460;7.158;2024-03-25T04:01:25;9.33;;;5.03;;
13568;SDS011;6856;51.460;7.158;2024-03-25T04:03:57;11.13;;;4.83;;
13568;SDS011;6856;51.460;7.158;2024-03-25T04:06:30;11.80;;;4.80;;
13568;SDS011;6856;51.460;7.158;2024-03-25T04:09:02;10.53;;;4.60;;
13568;SDS011;6856;51.460;7.158;2024-03-25T04:11:35;9.73;;;5.20;;
13568;SDS011;6856;51.460;7.158;2024-03-25T04:14:10;9.77;;;4.43;;
13568;SDS011;6856;51.460;7.158;2024-03-25T04:16:43;10.60;;;4.50;;
13568;SDS011;6856;51.460;7.158;2024-03-25T04:19:15;6.60;;;4.27;;
13568;SDS011;6856;51.460;7.158;2024-03-25T04:21:48;9.97;;;4.53;;
13568;SDS011;6856;51.460;7.158;2024-03-25T04:24:20;10.40;;;4.63;;
13568;SDS011;6856;51.460;7.158;2024-03-25T04:26:53;10.70;;;4.90;;
13568;SDS011;6856;51.460;7.158;2024-03-25T04:29:28;9.03;;;5.07;;
13568;SDS011;6856;51.460;7.158;2024-03-25T04:32:02;8.57;;;4.73;;
13568;SDS011;6856;51.460;7.158;2024-03-25T04:34:34;8.23;;;4.87;;
13568;SDS011;6856;51.460;7.158;2024-03-25T04:37:08;12.70;;;5.57;;
13568;SDS011;6856;51.460;7.158;2024-03-25T04:39:41;7.33;;;4.63;;
13568;SDS011;6856;51.460;7.158;2024-03-25T04:42:15;9.40;;;4.80;;
13568;SDS011;6856;51.460;7.158;2024-03-25T04:44:49;8.33;;;4.83;;
13568;SDS011;6856;51.460;7.158;2024-03-25T04:47:23;11.13;;;5.13;;
13568;SDS011;6856;51.460;7.158;2024-03-25T04:49:55;9.43;;;5.10;;
13568;SDS011;6856;51.460;7.158;2024-03-25T04:52:27;7.33;;;4.50;;
13568;SDS011;6856;51.460;7.158;2024-03-25T04:54:58;8.70;;;4.70;;
13568;SDS011;6856;51.460;7.158;2024-03-25T04:57:30;10.53;;;5.20;;
13568;SDS011;6856;51.460;7.158;2024-03-25T05:00:05;8.67;;;4.87;;
13568;SDS011;6856;51.460;7.158;2024-03-25T05:02:40;8.80;;;4.70;;
13568;SDS011;6856;51.460;7.158;2024-03-25T05:05:12;16.70;;;5.40;;
13568;SDS011;6856;51.460;7.158;2024-03-25T05:07:44;9.27;;;5.27;;
13568;SDS011;6856;51.460;7.158;2024-03-25T05:10:16;9.43;;;5.20;;
13568;SDS011;6856;51.460;7.158;2024-03-25T05:12:48;10.47;;;5.40;;
13568;SDS011;6856;51.460;7.158;2024-03-25T05:15:22;8.40;;;4.90;;
13568;SDS011;6856;51.460;7.158;2024-03-25T05:17:54;10.67;;;5.07;;
13568;SDS011;6856;51.460;7.158;2024-03-25T05:20:26;10.60;;;5.33;;
13568;SDS011;6856;51.460;7.158;2024-03-25T05:22:59;8.97;;;4.60;;
13568;SDS011;6856;51.460;7.158;2024-03-25T05:25:31;9.97;;;4.93;;
13568;SDS011;6856;51.460;7.158;2024-03-25T05:28:04;10.10;;;4.90;;
13568;SDS011;6856;51.460;7.158;2024-03-25T05:30:39;8.57;;;4.83;;
13568;SDS011;6856;51.460;7.158;2024-03-25T05:33:13;9.90;;;5.07;;
13568;SDS011;6856;51.460;7.158;2024-03-25T05:35:45;10.37;;;4.93;;
13568;SDS011;6856;51.460;7.158;2024-03-25T05:38:18;9.63;;;5.17;;
13568;SDS011;6856;51.460;7.158;2024-03-25T05:40:51;11.40;;;4.90;;
13568;SDS011;6856;51.460;7.158;2024-03-25T05:43:23;10.63;;;5.20;;
13568;SDS011;6856;51.460;7.158;2024-03-25T05:45:58;8.80;;;5.13;;
13568;SDS011;6856;51.460;7.158;2024-03-25T05:48:30;10.20;;;5.20;;
13568;SDS011;6856;51.460;7.158;2024-03-25T05:51:02;9.00;;;5.10;;
13568;SDS011;6856;51.460;7.158;2024-03-25T05:53:36;8.23;;;4.73;;
13568;SDS011;6856;51.460;7.158;2024-03-25T05:56:10;11.40;;;5.30;;
13568;SDS011;6856;51.460;7.158;2024-03-25T05:58:42;9.53;;;5.20;;
13568;SDS011;6856;51.460;7.158;2024-03-25T06:01:15;9.07;;;5.50;;
13568;SDS011;6856;51.460;7.158;2024-03-25T06:03:49;8.00;;;4.77;;
13568;SDS011;6856;51.460;7.158;2024-03-25T06:06:23;8.83;;;4.67;;
13568;SDS011;6856;51.460;7.158;2024-03-25T06:08:55;10.50;;;5.10;;
13568;SDS011;6856;51.460;7.158;2024-03-25T06:11:27;10.73;;;5.20;;
13568;SDS011;6856;51.460;7.158;2024-03-25T06:13:59;7.97;;;4.57;;
13568;SDS011;6856;51.460;7.158;2024-03-25T06:16:34;10.70;;;4.93;;
13568;SDS011;6856;51.460;7.158;2024-03-25T06:19:06;8.97;;;4.80;;
13568;SDS011;6856;51.460;7.158;2024-03-25T06:21:38;10.43;;;5.30;;
13568;SDS011;6856;51.460;7.158;2024-03-25T06:24:11;11.10;;;5.43;;
13568;SDS011;6856;51.460;7.158;2024-03-25T06:26:44;9.97;;;5.50;;
13568;SDS011;6856;51.460;7.158;2024-03-25T06:29:19;11.37;;;5.13;;
13568;SDS011;6856;51.460;7.158;2024-03-25T06:31:53;8.87;;;4.63;;
13568;SDS011;6856;51.460;7.158;2024-03-25T06:34:44;10.50;;;4.53;;
13568;SDS011;6856;51.460;7.158;2024-03-25T06:37:16;10.30;;;5.30;;
13568;SDS011;6856;51.460;7.158;2024-03-25T06:39:48;9.43;;;4.43;;
13568;SDS011;6856;51.460;7.158;2024-03-25T06:42:20;9.07;;;5.07;;
13568;SDS011;6856;51.460;7.158;2024-03-25T06:44:52;10.63;;;5.27;;
13568;SDS011;6856;51.460;7.158;2024-03-25T06:47:26;8.50;;;4.60;;
13568;SDS011;6856;51.460;7.158;2024-03-25T06:49:58;10.10;;;4.73;;
13568;SDS011;6856;51.460;7.158;2024-03-25T06:52:30;11.40;;;5.20;;
13568;SDS011;6856;51.460;7.158;2024-03-25T06:55:02;9.90;;;5.13;;
13568;SDS011;6856;51.460;7.158;2024-03-25T06:57:37;10.57;;;5.20;;
13568;SDS011;6856;51.460;7.158;2024-03-25T07:00:09;8.43;;;4.57;;
13568;SDS011;6856;51.460;7.158;2024-03-25T07:02:43;12.00;;;5.40;;
13568;SDS011;6856;51.460;7.158;2024-03-25T07:05:15;10.17;;;5.43;;
13568;SDS011;6856;51.460;7.158;2024-03-25T07:07:47;9.47;;;4.90;;
13568;SDS011;6856;51.460;7.158;2024-03-25T07:10:20;8.13;;;4.60;;
13568;SDS011;6856;51.460;7.158;2024-03-25T07:12:52;9.90;;;4.93;;
13568;SDS011;6856;51.460;7.158;2024-03-25T07:15:24;9.30;;;4.97;;
13568;SDS011;6856;51.460;7.158;2024-03-25T07:18:01;9.33;;;4.97;;
13568;SDS011;6856;51.460;7.158;2024-03-25T07:20:34;9.80;;;4.90;;
13568;SDS011;6856;51.460;7.158;2024-03-25T07:23:06;8.13;;;4.43;;
13568;SDS011;6856;51.460;7.158;2024-03-25T07:25:39;11.33;;;4.83;;
13568;SDS011;6856;51.460;7.158;2024-03-25T07:28:13;11.40;;;4.60;;
13568;SDS011;6856;51.460;7.158;2024-03-25T07:30:46;8.90;;;4.30;;
13568;SDS011;6856;51.460;7.158;2024-03-25T07:33:26;10.20;;;4.30;;
13568;SDS011;6856;51.460;7.158;2024-03-25T07:35:57;9.10;;;4.33;;
13568;SDS011;6856;51.460;7.158;2024-03-25T07:38:30;9.00;;;4.77;;
13568;SDS011;6856;51.460;7.158;2024-03-25T07:41:04;8.67;;;4.93;;
13568;SDS011;6856;51.460;7.158;2024-03-25T07:43:36;8.20;;;4.33;;
13568;SDS011;6856;51.460;7.158;2024-03-25T07:46:08;10.43;;;4.70;;
13568;SDS011;6856;51.460;7.158;2024-03-25T07:48:42;11.93;;;4.30;;
13568;SDS011;6856;51.460;7.158;2024-03-25T07:51:14;10.63;;;4.50;;
13568;SDS011;6856;51.460;7.158;2024-03-25T07:53:47;10.63;;;5.10;;
13568;SDS011;6856;51.460;7.158;2024-03-25T07:56:21;15.07;;;5.37;;
13568;SDS011;6856;51.460;7.158;2024-03-25T07:58:53;8.47;;;4.43;;
13568;SDS011;6856;51.460;7.158;2024-03-25T08:01:25;8.40;;;4.13;;
13568;SDS011;6856;51.460;7.158;2024-03-25T08:03:59;9.60;;;4.40;;
13568;SDS011;6856;51.460;7.158;2024-03-25T08:06:32;9.33;;;4.27;;
13568;SDS011;6856;51.460;7.158;2024-03-25T08:09:04;8.60;;;4.07;;
13568;SDS011;6856;51.460;7.158;2024-03-25T08:11:36;10.83;;;4.50;;
13568;SDS011;6856;51.460;7.158;2024-03-25T08:14:09;10.63;;;4.37;;
13568;SDS011;6856;51.460;7.158;2024-03-25T08:16:42;9.23;;;4.13;;
13568;SDS011;6856;51.460;7.158;2024-03-25T08:19:16;7.97;;;4.37;;
13568;SDS011;6856;51.460;7.158;2024-03-25T08:21:48;9.70;;;3.90;;
13568;SDS011;6856;51.460;7.158;2024-03-25T08:24:20;12.47;;;4.13;;
13568;SDS011;6856;51.460;7.158;2024-03-25T08:26:52;10.73;;;4.73;;
13568;SDS011;6856;51.460;7.158;2024-03-25T08:29:24;9.10;;;4.07;;
13568;SDS011;6856;51.460;7.158;2024-03-25T08:31:56;8.50;;;4.23;;
13568;SDS011;6856;51.460;7.158;2024-03-25T08:34:30;7.67;;;3.83;;
13568;SDS011;6856;51.460;7.158;2024-03-25T08:37:02;15.10;;;4.00;;
13568;SDS011;6856;51.460;7.158;2024-03-25T08:39:37;7.10;;;3.50;;
13568;SDS011;6856;51.460;7.158;2024-03-25T08:42:10;6.97;;;2.87;;
13568;SDS011;6856;51.460;7.158;2024-03-25T08:44:42;9.77;;;3.77;;
13568;SDS011;6856;51.460;7.158;2024-03-25T08:47:15;8.20;;;3.47;;
13568;SDS011;6856;51.460;7.158;2024-03-25T08:49:49;6.97;;;3.30;;
13568;SDS011;6856;51.460;7.158;2024-03-25T08:52:21;8.20;;;3.37;;
13568;SDS011;6856;51.460;7.158;2024-03-25T08:54:54;6.50;;;2.80;;
13568;SDS011;6856;51.460;7.158;2024-03-25T08:57:26;6.80;;;2.80;;
13568;SDS011;6856;51.460;7.158;2024-03-25T08:59:59;7.40;;;2.60;;
13568;SDS011;6856;51.460;7.158;2024-03-25T09:02:32;6.30;;;2.50;;
13568;SDS011;6856;51.460;7.158;2024-03-25T09:05:07;8.23;;;3.03;;
13568;SDS011;6856;51.460;7.158;2024-03-25T09:07:39;6.90;;;2.60;;
13568;SDS011;6856;51.460;7.158;2024-03-25T09:10:11;6.80;;;2.33;;
13568;SDS011;6856;51.460;7.158;2024-03-25T09:13:01;5.43;;;2.13;;
13568;SDS011;6856;51.460;7.158;2024-03-25T09:15:34;4.93;;;2.10;;
13568;SDS011;6856;51.460;7.158;2024-03-25T09:18:06;4.37;;;1.97;;
13568;SDS011;6856;51.460;7.158;2024-03-25T09:20:44;7.77;;;2.47;;
13568;SDS011;6856;51.460;7.158;2024-03-25T09:23:16;4.80;;;1.93;;
13568;SDS011;6856;51.460;7.158;2024-03-25T09:25:51;5.23;;;1.70;;
13568;SDS011;6856;51.460;7.158;2024-03-25T09:28:26;5.70;;;2.30;;
13568;SDS011;6856;51.460;7.158;2024-03-25T09:30:59;5.87;;;2.10;;
13568;SDS011;6856;51.460;7.158;2024-03-25T09:33:32;4.83;;;2.20;;
13568;SDS011;6856;51.460;7.158;2024-03-25T09:36:07;4.20;;;2.00;;
13568;SDS011;6856;51.460;7.158;2024-03-25T09:38:43;3.93;;;1.90;;
13568;SDS011;6856;51.460;7.158;2024-03-25T09:41:15;6.90;;;2.03;;
13568;SDS011;6856;51.460;7.158;2024-03-25T09:43:52;4.50;;;1.80;;
13568;SDS011;6856;51.460;7.158;2024-03-25T09:46:26;5.07;;;2.03;;
13568;SDS011;6856;51.460;7.158;2024-03-25T09:49:00;5.37;;;2.17;;
13568;SDS011;6856;51.460;7.158;2024-03-25T09:51:34;5.40;;;2.13;;
13568;SDS011;6856;51.460;7.158;2024-03-25T09:54:07;6.33;;;2.30;;
13568;SDS011;6856;51.460;7.158;2024-03-25T09:56:40;4.87;;;2.10;;
13568;SDS011;6856;51.460;7.158;2024-03-25T09:59:14;7.07;;;2.30;;
13568;SDS011;6856;51.460;7.158;2024-03-25T10:01:46;11.07;;;2.60;;
13568;SDS011;6856;51.460;7.158;2024-03-25T10:04:18;7.40;;;2.47;;
13568;SDS011;6856;51.460;7.158;2024-03-25T10:06:52;4.93;;;2.00;;
13568;SDS011;6856;51.460;7.158;2024-03-25T10:09:25;6.07;;;2.07;;
13568;SDS011;6856;51.460;7.158;2024-03-25T10:12:43;5.33;;;1.90;;
13568;SDS011;6856;51.460;7.158;2024-03-25T10:15:18;7.43;;;1.93;;
13568;SDS011;6856;51.460;7.158;2024-03-25T10:17:50;4.87;;;1.97;;
13568;SDS011;6856;51.460;7.158;2024-03-25T10:20:22;4.40;;;1.93;;
13568;SDS011;6856;51.460;7.158;2024-03-25T10:22:56;7.77;;;2.20;;
13568;SDS011;6856;51.460;7.158;2024-03-25T10:25:29;3.87;;;1.77;;
13568;SDS011;6856;51.460;7.158;2024-03-25T10:28:04;3.23;;;1.83;;
13568;SDS011;6856;51.460;7.158;2024-03-25T10:30:36;3.30;;;1.83;;
13568;SDS011;6856;51.460;7.158;2024-03-25T10:33:08;3.50;;;1.67;;
13568;SDS011;6856;51.460;7.158;2024-03-25T10:35:42;4.33;;;1.97;;
13568;SDS011;6856;51.460;7.158;2024-03-25T10:38:23;4.00;;;1.50;;
13568;SDS011;6856;51.460;7.158;2024-03-25T10:40:56;4.33;;;1.90;;
13568;SDS011;6856;51.460;7.158;2024-03-25T10:43:37;3.60;;;1.87;;
13568;SDS011;6856;51.460;7.158;2024-03-25T10:46:17;3.87;;;1.63;;
13568;SDS011;6856;51.460;7.158;2024-03-25T10:48:52;3.60;;;2.00;;
13568;SDS011;6856;51.460;7.158;2024-03-25T10:51:32;4.07;;;1.57;;
13568;SDS011;6856;51.460;7.158;2024-03-25T10:54:12;3.77;;;1.73;;
13568;SDS011;6856;51.460;7.158;2024-03-25T10:56:49;4.97;;;1.80;;
13568;SDS011;6856;51.460;7.158;2024-03-25T10:59:21;5.17;;;1.60;;
13568;SDS011;6856;51.460;7.158;2024-03-25T11:01:58;4.13;;;1.60;;
13568;SDS011;6856;51.460;7.158;2024-03-25T11:04:32;3.23;;;1.40;;
13568;SDS011;6856;51.460;7.158;2024-03-25T11:07:07;3.93;;;1.80;;
13568;SDS011;6856;51.460;7.158;2024-03-25T11:09:42;4.40;;;1.70;;
13568;SDS011;6856;51.460;7.158;2024-03-25T11:12:15;4.90;;;1.70;;
13568;SDS011;6856;51.460;7.158;2024-03-25T11:14:56;4.93;;;2.10;;
13568;SDS011;6856;51.460;7.158;2024-03-25T11:17:28;2.50;;;1.60;;
13568;SDS011;6856;51.460;7.158;2024-03-25T11:20:07;2.07;;;1.20;;
13568;SDS011;6856;51.460;7.158;2024-03-25T11:22:47;2.57;;;1.40;;
13568;SDS011;6856;51.460;7.158;2024-03-25T11:25:22;3.60;;;1.60;;
13568;SDS011;6856;51.460;7.158;2024-03-25T11:27:54;3.27;;;1.43;;
13568;SDS011;6856;51.460;7.158;2024-03-25T11:30:26;2.57;;;1.43;;
13568;SDS011;6856;51.460;7.158;2024-03-25T11:33:01;4.77;;;1.53;;
13568;SDS011;6856;51.460;7.158;2024-03-25T11:35:36;5.87;;;1.73;;
13568;SDS011;6856;51.460;7.158;2024-03-25T11:38:10;4.93;;;1.77;;
13568;SDS011;6856;51.460;7.158;2024-03-25T11:40:45;4.80;;;1.93;;
13568;SDS011;6856;51.460;7.158;2024-03-25T11:43:18;2.37;;;1.40;;
13568;SDS011;6856;51.460;7.158;2024-03-25T11:45:50;3.40;;;1.70;;
13568;SDS011;6856;51.460;7.158;2024-03-25T11:48:23;3.63;;;1.80;;
13568;SDS011;6856;51.460;7.158;2024-03-25T11:50:56;5.87;;;1.80;;
13568;SDS011;6856;51.460;7.158;2024-03-25T11:53:29;3.07;;;1.57;;
13568;SDS011;6856;51.460;7.158;2024-03-25T11:56:04;4.70;;;1.50;;
13568;SDS011;6856;51.460;7.158;2024-03-25T11:58:36;4.53;;;1.70;;
13568;SDS011;6856;51.460;7.158;2024-03-25T12:01:09;3.27;;;1.80;;
13568;SDS011;6856;51.460;7.158;2024-03-25T12:03:41;4.50;;;1.43;;
13568;SDS011;6856;51.460;7.158;2024-03-25T12:06:15;4.03;;;1.77;;
13568;SDS011;6856;51.460;7.158;2024-03-25T12:08:47;4.90;;;1.87;;
13568;SDS011;6856;51.460;7.158;2024-03-25T12:11:35;5.40;;;1.70;;
13568;SDS011;6856;51.460;7.158;2024-03-25T12:14:07;5.07;;;1.60;;
13568;SDS011;6856;51.460;7.158;2024-03-25T12:16:40;3.10;;;1.60;;
13568;SDS011;6856;51.460;7.158;2024-03-25T12:19:12;2.70;;;1.70;;
13568;SDS011;6856;51.460;7.158;2024-03-25T12:21:43;3.63;;;1.67;;
13568;SDS011;6856;51.460;7.158;2024-03-25T12:24:16;3.80;;;1.17;;
13568;SDS011;6856;51.460;7.158;2024-03-25T12:26:52;2.90;;;1.20;;
13568;SDS011;6856;51.460;7.158;2024-03-25T12:29:24;4.03;;;1.50;;
13568;SDS011;6856;51.460;7.158;2024-03-25T12:31:56;4.90;;;1.57;;
13568;SDS011;6856;51.460;7.158;2024-03-25T12:34:28;4.20;;;1.43;;
13568;SDS011;6856;51.460;7.158;2024-03-25T12:37:03;5.27;;;1.67;;
13568;SDS011;6856;51.460;7.158;2024-03-25T12:39:35;4.20;;;1.23;;
13568;SDS011;6856;51.460;7.158;2024-03-25T12:42:21;3.77;;;1.40;;
13568;SDS011;6856;51.460;7.158;2024-03-25T12:44:53;2.93;;;1.67;;
13568;SDS011;6856;51.460;7.158;2024-03-25T12:47:25;3.77;;;1.10;;
13568;SDS011;6856;51.460;7.158;2024-03-25T12:49:59;2.60;;;1.40;;
13568;SDS011;6856;51.460;7.158;2024-03-25T12:52:31;3.90;;;1.50;;
13568;SDS011;6856;51.460;7.158;2024-03-25T12:55:03;4.43;;;1.40;;
13568;SDS011;6856;51.460;7.158;2024-03-25T12:57:39;3.33;;;1.50;;
13568;SDS011;6856;51.460;7.158;2024-03-25T13:00:11;4.17;;;1.37;;
13568;SDS011;6856;51.460;7.158;2024-03-25T13:02:46;2.70;;;1.50;;
13568;SDS011;6856;51.460;7.158;2024-03-25T13:05:18;2.73;;;1.17;;
13568;SDS011;6856;51.460;7.158;2024-03-25T13:07:51;3.90;;;1.27;;
13568;SDS011;6856;51.460;7.158;2024-03-25T13:10:24;3.83;;;1.43;;
13568;SDS011;6856;51.460;7.158;2024-03-25T13:12:59;2.77;;;1.33;;
13568;SDS011;6856;51.460;7.158;2024-03-25T13:15:33;2.77;;;1.00;;
13568;SDS011;6856;51.460;7.158;2024-03-25T13:18:05;2.83;;;1.10;;
13568;SDS011;6856;51.460;7.158;2024-03-25T13:20:37;3.87;;;0.93;;
13568;SDS011;6856;51.460;7.158;2024-03-25T13:23:10;3.13;;;1.47;;
13568;SDS011;6856;51.460;7.158;2024-03-25T13:25:43;3.33;;;1.40;;
13568;SDS011;6856;51.460;7.158;2024-03-25T13:28:17;2.77;;;1.30;;
13568;SDS011;6856;51.460;7.158;2024-03-25T13:30:49;3.37;;;1.47;;
13568;SDS011;6856;51.460;7.158;2024-03-25T13:33:21;1.77;;;0.93;;
13568;SDS011;6856;51.460;7.158;2024-03-25T13:35:53;2.00;;;1.13;;
13568;SDS011;6856;51.460;7.158;2024-03-25T13:38:25;3.93;;;1.20;;
13568;SDS011;6856;51.460;7.158;2024-03-25T13:40:58;3.30;;;0.90;;
13568;SDS011;6856;51.460;7.158;2024-03-25T13:43:33;3.03;;;1.30;;
13568;SDS011;6856;51.460;7.158;2024-03-25T13:46:06;3.27;;;1.30;;
13568;SDS011;6856;51.460;7.158;2024-03-25T13:48:38;2.60;;;1.00;;
13568;SDS011;6856;51.460;7.158;2024-03-25T13:51:11;2.50;;;1.40;;
13568;SDS011;6856;51.460;7.158;2024-03-25T13:53:42;3.70;;;1.20;;
13568;SDS011;6856;51.460;7.158;2024-03-25T13:56:15;2.23;;;1.03;;
13568;SDS011;6856;51.460;7.158;2024-03-25T13:58:48;2.00;;;1.03;;
13568;SDS011;6856;51.460;7.158;2024-03-25T14:01:21;1.83;;;1.17;;
13568;SDS011;6856;51.460;7.158;2024-03-25T14:03:56;2.33;;;1.00;;
13568;SDS011;6856;51.460;7.158;2024-03-25T14:06:29;2.17;;;1.10;;
13568;SDS011;6856;51.460;7.158;2024-03-25T14:09:04;3.60;;;1.43;;
13568;SDS011;6856;51.460;7.158;2024-03-25T14:11:36;3.80;;;1.30;;
13568;SDS011;6856;51.460;7.158;2024-03-25T14:14:14;4.23;;;1.40;;
13568;SDS011;6856;51.460;7.158;2024-03-25T14:16:46;2.60;;;1.40;;
13568;SDS011;6856;51.460;7.158;2024-03-25T14:19:33;2.27;;;1.20;;
13568;SDS011;6856;51.460;7.158;2024-03-25T14:22:07;3.07;;;1.40;;
13568;SDS011;6856;51.460;7.158;2024-03-25T14:24:38;2.57;;;1.17;;
13568;SDS011;6856;51.460;7.158;2024-03-25T14:27:21;2.37;;;1.30;;
13568;SDS011;6856;51.460;7.158;2024-03-25T14:30:11;3.73;;;1.33;;
13568;SDS011;6856;51.460;7.158;2024-03-25T14:32:50;2.63;;;1.10;;
13568;SDS011;6856;51.460;7.158;2024-03-25T14:36:22;2.50;;;1.20;;
13568;SDS011;6856;51.460;7.158;2024-03-25T14:38:55;2.50;;;1.20;;
13568;SDS011;6856;51.460;7.158;2024-03-25T14:41:27;2.57;;;1.17;;
13568;SDS011;6856;51.460;7.158;2024-03-25T14:44:11;1.60;;;0.90;;
13568;SDS011;6856;51.460;7.158;2024-03-25T14:46:45;3.93;;;1.40;;
13568;SDS011;6856;51.460;7.158;2024-03-25T14:49:17;2.43;;;1.40;;
13568;SDS011;6856;51.460;7.158;2024-03-25T14:51:50;2.67;;;1.17;;
13568;SDS011;6856;51.460;7.158;2024-03-25T14:54:23;4.13;;;1.50;;
13568;SDS011;6856;51.460;7.158;2024-03-25T14:57:04;1.80;;;0.90;;
13568;SDS011;6856;51.460;7.158;2024-03-25T14:59:36;2.80;;;1.13;;
13568;SDS011;6856;51.460;7.158;2024-03-25T15:02:12;2.83;;;1.17;;
13568;SDS011;6856;51.460;7.158;2024-03-25T15:04:44;2.63;;;1.40;;
13568;SDS011;6856;51.460;7.158;2024-03-25T15:07:15;3.43;;;1.20;;
13568;SDS011;6856;51.460;7.158;2024-03-25T15:09:48;3.57;;;1.40;;
13568;SDS011;6856;51.460;7.158;2024-03-25T15:12:20;3.43;;;1.20;;
13568;SDS011;6856;51.460;7.158;2024-03-25T15:14:52;6.03;;;1.63;;
13568;SDS011;6856;51.460;7.158;2024-03-25T15:17:26;2.70;;;0.97;;
13568;SDS011;6856;51.460;7.158;2024-03-25T15:19:58;3.67;;;1.30;;
13568;SDS011;6856;51.460;7.158;2024-03-25T15:22:31;2.73;;;0.90;;
13568;SDS011;6856;51.460;7.158;2024-03-25T15:25:03;2.87;;;1.13;;
13568;SDS011;6856;51.460;7.158;2024-03-25T15:27:37;3.87;;;1.33;;
13568;SDS011;6856;51.460;7.158;2024-03-25T15:30:09;3.57;;;1.07;;
13568;SDS011;6856;51.460;7.158;2024-03-25T15:32:45;2.37;;;0.90;;
13568;SDS011;6856;51.460;7.158;2024-03-25T15:35:17;2.97;;;1.17;;
13568;SDS011;6856;51.460;7.158;2024-03-25T15:37:52;3.00;;;1.00;;